createdAt,value
2017-12-16T00:00:18.185Z,40.20
2017-12-16T00:02:46.395Z,40.87
2017-12-16T00:05:13.831Z,40.50
2017-12-16T00:07:42.016Z,38.90
2017-12-16T00:10:09.461Z,41.83
2017-12-16T00:12:36.885Z,41.00
2017-12-16T00:15:04.322Z,39.20
2017-12-16T00:17:31.766Z,41.87
2017-12-16T00:19:59.192Z,38.37
2017-12-16T00:22:26.624Z,42.77
2017-12-16T00:24:55.165Z,42.63
2017-12-16T00:27:22.590Z,38.73
2017-12-16T00:29:50.021Z,37.43
2017-12-16T00:32:18.237Z,44.40
2017-12-16T00:34:45.676Z,40.63
2017-12-16T00:37:13.104Z,42.23
2017-12-16T00:39:40.544Z,43.20
2017-12-16T00:42:07.982Z,39.13
2017-12-16T00:44:35.408Z,48.00
2017-12-16T00:47:02.849Z,44.17
2017-12-16T00:49:31.053Z,43.13
2017-12-16T00:51:58.488Z,39.77
2017-12-16T00:54:25.929Z,50.77
2017-12-16T00:56:54.152Z,42.57
2017-12-16T00:59:21.600Z,50.13
2017-12-16T01:01:49.365Z,40.00
2017-12-16T01:04:16.808Z,37.83
2017-12-16T01:06:44.238Z,43.40
2017-12-16T01:09:12.448Z,43.83
2017-12-16T01:11:39.877Z,44.73
2017-12-16T01:14:08.637Z,46.27
2017-12-16T01:16:36.076Z,44.13
2017-12-16T01:19:03.508Z,45.70
2017-12-16T01:21:30.948Z,43.97
2017-12-16T01:23:58.393Z,45.33
2017-12-16T01:26:25.822Z,44.53
2017-12-16T01:28:53.256Z,46.10
2017-12-16T01:31:21.005Z,49.00
2017-12-16T01:34:00.496Z,47.30
2017-12-16T01:36:40.804Z,47.63
2017-12-16T01:39:08.246Z,45.57
2017-12-16T01:41:35.718Z,47.73
2017-12-16T01:44:03.177Z,48.93
2017-12-16T01:46:30.632Z,45.63
2017-12-16T01:48:58.065Z,50.70
2017-12-16T01:51:25.857Z,52.23
2017-12-16T01:53:53.291Z,49.33
2017-12-16T01:56:20.719Z,54.73
2017-12-16T01:58:48.932Z,49.30
2017-12-16T02:01:16.365Z,51.40
2017-12-16T02:03:44.578Z,50.60
2017-12-16T02:06:12.036Z,49.37
2017-12-16T02:08:39.497Z,51.13
2017-12-16T02:11:06.945Z,45.43
2017-12-16T02:13:34.395Z,52.53
2017-12-16T02:16:01.828Z,52.43
2017-12-16T02:18:29.260Z,51.90
2017-12-16T02:20:57.489Z,58.37
2017-12-16T02:23:24.925Z,51.67
2017-12-16T02:25:52.374Z,50.93
2017-12-16T02:28:19.821Z,54.37
2017-12-16T02:30:48.017Z,54.93
2017-12-16T02:33:15.445Z,50.50
2017-12-16T02:35:43.656Z,53.70
2017-12-16T02:38:11.089Z,46.73
2017-12-16T02:40:39.289Z,44.77
2017-12-16T02:43:06.752Z,47.77
2017-12-16T02:45:34.273Z,42.50
2017-12-16T02:48:01.693Z,42.37
2017-12-16T02:50:29.150Z,43.17
2017-12-16T02:52:56.565Z,39.33
2017-12-16T02:55:24.000Z,38.57
2017-12-16T02:57:52.521Z,34.37
2017-12-16T03:00:19.961Z,37.57
2017-12-16T03:02:47.384Z,30.90
2017-12-16T03:05:15.585Z,30.40
2017-12-16T03:07:43.018Z,29.50
2017-12-16T03:10:11.208Z,28.20
2017-12-16T03:12:38.916Z,27.27
2017-12-16T03:15:06.341Z,25.43
2017-12-16T03:17:33.808Z,25.23
2017-12-16T03:20:01.979Z,21.73
2017-12-16T03:22:29.400Z,23.50
2017-12-16T03:24:57.613Z,21.30
2017-12-16T03:27:25.390Z,21.97
2017-12-16T03:29:52.890Z,20.73
2017-12-16T03:32:21.121Z,18.63
2017-12-16T03:34:48.567Z,20.83
2017-12-16T03:37:16.030Z,19.97
2017-12-16T03:39:43.468Z,16.70
2017-12-16T03:42:10.906Z,17.97
2017-12-16T03:44:39.101Z,16.93
2017-12-16T03:47:06.533Z,15.83
2017-12-16T03:49:34.752Z,16.10
2017-12-16T03:52:02.195Z,13.73
2017-12-16T03:54:29.626Z,14.80
2017-12-16T03:56:58.071Z,14.23
2017-12-16T03:59:25.504Z,13.03
2017-12-16T04:01:52.930Z,14.73
2017-12-16T04:04:20.365Z,12.63
2017-12-16T04:06:48.568Z,14.23
2017-12-16T04:09:16.049Z,13.20
2017-12-16T04:11:43.497Z,13.07
2017-12-16T04:14:10.933Z,11.70
2017-12-16T04:16:38.421Z,11.40
2017-12-16T04:19:06.113Z,12.07
2017-12-16T04:21:33.544Z,11.87
2017-12-16T04:24:01.000Z,11.87
2017-12-16T04:26:28.455Z,13.67
2017-12-16T04:28:55.869Z,12.60
2017-12-16T04:31:24.145Z,12.70
2017-12-16T04:33:51.541Z,12.33
2017-12-16T04:36:18.996Z,12.63
2017-12-16T04:38:46.430Z,12.00
2017-12-16T04:41:14.258Z,12.10
2017-12-16T04:43:41.667Z,12.50
2017-12-16T04:46:09.092Z,13.43
2017-12-16T04:48:37.298Z,11.57
2017-12-16T04:51:04.724Z,12.03
2017-12-16T04:53:32.925Z,12.13
2017-12-16T04:56:00.371Z,12.43
2017-12-16T04:58:27.800Z,10.80
2017-12-16T05:00:56.002Z,12.30
2017-12-16T05:03:23.692Z,10.60
2017-12-16T05:05:51.118Z,11.33
2017-12-16T05:08:18.541Z,11.53
2017-12-16T05:10:45.991Z,11.73
2017-12-16T05:13:13.412Z,11.43
2017-12-16T05:15:40.842Z,9.53
2017-12-16T05:18:09.046Z,9.57
2017-12-16T05:20:36.474Z,10.07
2017-12-16T05:23:03.901Z,10.70
2017-12-16T05:25:31.590Z,11.70
2017-12-16T05:27:59.015Z,10.63
2017-12-16T05:30:26.446Z,10.57
2017-12-16T05:32:53.885Z,8.93
2017-12-16T05:35:21.309Z,9.70
2017-12-16T05:37:49.513Z,8.87
2017-12-16T05:40:16.953Z,8.80
2017-12-16T05:42:44.377Z,8.90
2017-12-16T05:45:11.805Z,8.93
2017-12-16T05:47:39.264Z,7.83
2017-12-16T05:50:06.681Z,9.63
2017-12-16T05:52:34.109Z,9.17
2017-12-16T05:55:01.596Z,7.67
2017-12-16T05:57:29.037Z,8.17
2017-12-16T05:59:56.440Z,8.57
2017-12-16T06:02:24.128Z,8.27
2017-12-16T06:04:51.559Z,7.90
2017-12-16T06:07:19.004Z,8.00
2017-12-16T06:09:46.464Z,8.23
2017-12-16T06:12:13.916Z,7.20
2017-12-16T06:14:41.328Z,7.70
2017-12-16T06:17:08.756Z,8.07
2017-12-16T06:19:36.195Z,7.17
2017-12-16T06:22:03.616Z,8.53
2017-12-16T06:24:31.412Z,7.77
2017-12-16T06:26:58.829Z,8.10
2017-12-16T06:29:27.035Z,7.23
2017-12-16T06:31:54.620Z,6.97
2017-12-16T06:34:22.052Z,6.53
2017-12-16T06:36:49.472Z,6.93
2017-12-16T06:39:18.100Z,6.67
2017-12-16T06:41:45.541Z,6.23
2017-12-16T06:44:12.964Z,6.23
2017-12-16T06:46:40.401Z,5.77
2017-12-16T06:49:07.828Z,5.20
2017-12-16T06:51:35.264Z,5.23
2017-12-16T06:54:02.701Z,4.77
2017-12-16T06:56:30.918Z,4.43
2017-12-16T06:58:58.345Z,4.90
2017-12-16T07:01:25.782Z,5.47
2017-12-16T07:03:53.973Z,4.50
2017-12-16T07:06:21.407Z,4.90
2017-12-16T07:08:49.612Z,5.50
2017-12-16T07:11:17.037Z,4.90
2017-12-16T07:13:45.227Z,4.30
2017-12-16T07:16:12.664Z,4.13
2017-12-16T07:18:40.856Z,4.77
2017-12-16T07:21:08.276Z,4.10
2017-12-16T07:23:35.712Z,3.40
2017-12-16T07:26:03.146Z,3.77
2017-12-16T07:28:30.577Z,4.27
2017-12-16T07:30:58.069Z,3.47
2017-12-16T07:33:25.532Z,3.47
2017-12-16T07:35:52.961Z,3.70
2017-12-16T07:38:20.399Z,3.27
2017-12-16T07:40:48.616Z,3.93
2017-12-16T07:43:16.040Z,2.90
2017-12-16T07:45:43.533Z,2.93
2017-12-16T07:48:10.961Z,3.10
2017-12-16T07:50:38.437Z,2.87
2017-12-16T07:53:05.883Z,2.53
2017-12-16T07:55:33.309Z,3.70
2017-12-16T07:58:01.496Z,3.23
2017-12-16T08:00:28.940Z,3.40
2017-12-16T08:02:57.187Z,3.27
2017-12-16T08:05:24.591Z,2.97
2017-12-16T08:07:52.028Z,2.17
2017-12-16T08:10:20.216Z,2.87
2017-12-16T08:12:47.642Z,2.97
2017-12-16T08:15:15.081Z,2.67
2017-12-16T08:17:42.510Z,3.50
2017-12-16T08:20:09.938Z,3.60
2017-12-16T08:22:38.145Z,2.87
2017-12-16T08:25:05.581Z,3.37
2017-12-16T08:27:34.545Z,2.13
2017-12-16T08:30:02.763Z,2.47
2017-12-16T08:32:31.174Z,2.50
2017-12-16T08:34:59.392Z,2.30
2017-12-16T08:37:26.840Z,3.00
2017-12-16T08:39:55.049Z,4.03
2017-12-16T08:42:22.473Z,2.80
2017-12-16T08:44:50.693Z,2.80
2017-12-16T08:47:18.150Z,2.40
2017-12-16T08:49:45.576Z,2.40
2017-12-16T08:52:13.069Z,2.90
2017-12-16T08:54:40.526Z,3.40
2017-12-16T08:57:07.953Z,2.70
2017-12-16T08:59:35.384Z,2.33
2017-12-16T09:02:03.579Z,2.03
2017-12-16T09:04:31.009Z,2.10
2017-12-16T09:06:59.241Z,2.30
2017-12-16T09:09:26.970Z,1.97
2017-12-16T09:11:54.402Z,2.37
2017-12-16T09:14:21.849Z,2.57
2017-12-16T09:16:49.285Z,2.50
2017-12-16T09:19:16.736Z,2.97
2017-12-16T09:21:44.233Z,2.43
2017-12-16T09:24:11.664Z,2.40
2017-12-16T09:26:39.105Z,2.70
2017-12-16T09:29:06.541Z,2.30
2017-12-16T09:31:34.030Z,2.57
2017-12-16T09:34:03.002Z,2.60
2017-12-16T09:36:30.691Z,2.47
2017-12-16T09:38:58.135Z,2.80
2017-12-16T09:41:25.597Z,3.60
2017-12-16T09:44:01.639Z,3.20
2017-12-16T09:46:30.796Z,3.00
2017-12-16T09:48:58.265Z,2.70
2017-12-16T09:51:29.287Z,3.43
2017-12-16T09:54:09.789Z,3.03
2017-12-16T09:56:37.960Z,2.73
2017-12-16T09:59:06.166Z,2.53
2017-12-16T10:01:33.624Z,2.43
2017-12-16T10:04:01.049Z,2.87
2017-12-16T10:06:29.261Z,2.20
2017-12-16T10:08:56.677Z,1.73
2017-12-16T10:11:24.879Z,2.90
2017-12-16T10:13:52.319Z,2.60
2017-12-16T10:16:20.536Z,1.73
2017-12-16T10:18:47.981Z,2.53
2017-12-16T10:21:15.441Z,1.87
2017-12-16T10:23:42.866Z,1.90
2017-12-16T10:26:10.287Z,2.30
2017-12-16T10:28:37.728Z,2.27
2017-12-16T10:31:05.273Z,2.40
2017-12-16T10:33:32.733Z,1.90
2017-12-16T10:36:00.169Z,2.77
2017-12-16T10:38:27.596Z,2.20
2017-12-16T10:40:55.800Z,2.53
2017-12-16T10:43:23.240Z,2.77
2017-12-16T10:45:50.670Z,1.53
2017-12-16T10:48:18.189Z,1.93
2017-12-16T10:50:45.688Z,2.17
2017-12-16T10:53:13.916Z,2.47
2017-12-16T10:55:41.374Z,3.47
2017-12-16T10:58:08.810Z,3.77
2017-12-16T11:00:36.238Z,13.83
2017-12-16T11:03:04.433Z,8.67
2017-12-16T11:05:31.881Z,17.57
2017-12-16T11:08:00.097Z,8.13
2017-12-16T11:10:27.521Z,9.53
2017-12-16T11:12:55.014Z,18.67
2017-12-16T11:15:22.460Z,9.37
2017-12-16T11:17:49.905Z,10.33
2017-12-16T11:20:17.348Z,3.77
2017-12-16T11:22:45.544Z,4.17
2017-12-16T11:25:13.010Z,2.17
2017-12-16T11:27:40.444Z,2.07
2017-12-16T11:30:07.925Z,2.53
2017-12-16T11:32:35.372Z,2.90
2017-12-16T11:35:02.830Z,2.00
2017-12-16T11:37:30.296Z,3.10
2017-12-16T11:39:57.748Z,4.00
2017-12-16T11:42:25.199Z,2.70
2017-12-16T11:44:52.633Z,2.13
2017-12-16T11:47:20.128Z,2.90
2017-12-16T11:49:47.570Z,2.43
2017-12-16T11:52:15.008Z,2.50
2017-12-16T11:54:42.444Z,2.70
2017-12-16T11:57:09.956Z,2.10
2017-12-16T11:59:37.387Z,2.23
2017-12-16T12:02:04.868Z,3.87
2017-12-16T12:04:32.321Z,3.93
2017-12-16T12:06:59.764Z,4.13
2017-12-16T12:09:27.245Z,10.63
2017-12-16T12:11:54.716Z,3.47
2017-12-16T12:14:22.542Z,3.90
2017-12-16T12:16:50.135Z,5.67
2017-12-16T12:19:17.576Z,4.53
2017-12-16T12:21:45.008Z,3.70
2017-12-16T12:24:12.489Z,3.67
2017-12-16T12:26:39.928Z,3.43
2017-12-16T12:29:07.404Z,2.03
2017-12-16T12:31:34.873Z,5.10
2017-12-16T12:34:02.313Z,2.33
2017-12-16T12:36:29.785Z,3.23
2017-12-16T12:38:57.227Z,1.90
2017-12-16T12:41:24.645Z,2.00
2017-12-16T12:43:52.885Z,2.23
2017-12-16T12:46:20.343Z,2.20
2017-12-16T12:48:47.781Z,3.57
2017-12-16T12:51:15.209Z,3.87
2017-12-16T12:53:42.635Z,1.90
2017-12-16T12:56:10.074Z,1.70
2017-12-16T12:58:37.500Z,2.77
2017-12-16T13:01:04.927Z,7.90
2017-12-16T13:03:33.127Z,3.87
2017-12-16T13:06:00.548Z,2.97
2017-12-16T13:08:28.747Z,2.63
2017-12-16T13:10:56.201Z,10.47
2017-12-16T13:13:23.650Z,10.93
2017-12-16T13:15:51.845Z,3.03
2017-12-16T13:18:19.309Z,2.93
2017-12-16T13:20:46.732Z,7.20
2017-12-16T13:23:15.013Z,4.07
2017-12-16T13:25:43.251Z,3.30
2017-12-16T13:28:10.648Z,3.07
2017-12-16T13:30:38.118Z,5.50
2017-12-16T13:33:05.572Z,8.17
2017-12-16T13:35:32.990Z,5.23
2017-12-16T13:38:00.416Z,6.47
2017-12-16T13:40:27.891Z,6.93
2017-12-16T13:42:55.320Z,3.77
2017-12-16T13:45:22.746Z,4.40
2017-12-16T13:47:50.203Z,3.80
2017-12-16T13:50:17.625Z,4.30
2017-12-16T13:52:45.064Z,3.07
2017-12-16T13:55:12.493Z,4.80
2017-12-16T13:57:39.912Z,3.13
2017-12-16T14:00:08.109Z,2.10
2017-12-16T14:02:35.542Z,3.47
2017-12-16T14:05:03.781Z,2.77
2017-12-16T14:07:31.204Z,2.87
2017-12-16T14:09:58.643Z,3.10
2017-12-16T14:12:26.833Z,3.03
2017-12-16T14:14:54.341Z,5.43
2017-12-16T14:17:21.764Z,3.57
2017-12-16T14:19:49.189Z,2.40
2017-12-16T14:22:17.381Z,2.60
2017-12-16T14:24:45.450Z,4.63
2017-12-16T14:27:13.624Z,5.20
2017-12-16T14:29:41.081Z,14.00
2017-12-16T14:32:09.267Z,8.27
2017-12-16T14:34:36.725Z,14.90
2017-12-16T14:37:04.157Z,18.37
2017-12-16T14:39:32.360Z,5.40
2017-12-16T14:41:59.903Z,3.40
2017-12-16T14:44:27.317Z,3.50
2017-12-16T14:46:54.789Z,4.17
2017-12-16T14:49:22.988Z,4.03
2017-12-16T14:51:50.413Z,3.53
2017-12-16T14:54:17.880Z,3.10
2017-12-16T14:56:46.097Z,2.23
2017-12-16T14:59:13.513Z,3.03
2017-12-16T15:01:41.716Z,2.53
2017-12-16T15:04:09.141Z,2.53
2017-12-16T15:06:37.341Z,2.43
2017-12-16T15:09:04.772Z,2.40
2017-12-16T15:11:32.973Z,2.40
2017-12-16T15:14:00.397Z,2.53
2017-12-16T15:16:28.611Z,3.20
2017-12-16T15:18:56.029Z,2.70
2017-12-16T15:21:23.510Z,2.83
2017-12-16T15:23:50.949Z,2.90
2017-12-16T15:26:19.184Z,2.63
2017-12-16T15:28:46.603Z,3.10
2017-12-16T15:31:14.029Z,2.80
2017-12-16T15:33:42.221Z,2.10
2017-12-16T15:36:10.413Z,3.03
2017-12-16T15:38:37.854Z,3.13
2017-12-16T15:41:06.045Z,4.10
2017-12-16T15:43:33.473Z,7.33
2017-12-16T15:46:01.674Z,9.37
2017-12-16T15:48:29.102Z,16.63
2017-12-16T15:50:57.312Z,11.57
2017-12-16T15:53:24.753Z,5.67
2017-12-16T15:55:52.180Z,5.53
2017-12-16T15:58:19.689Z,3.37
2017-12-16T16:00:47.128Z,4.87
2017-12-16T16:03:14.681Z,6.90
2017-12-16T16:05:42.108Z,3.17
2017-12-16T16:08:09.585Z,13.13
2017-12-16T16:10:37.789Z,8.23
2017-12-16T16:13:05.224Z,16.93
2017-12-16T16:15:33.417Z,3.30
2017-12-16T16:18:00.909Z,5.27
2017-12-16T16:20:28.338Z,4.50
2017-12-16T16:22:55.781Z,10.67
2017-12-16T16:25:23.201Z,6.23
2017-12-16T16:27:50.624Z,3.73
2017-12-16T16:30:18.833Z,9.57
2017-12-16T16:32:46.357Z,9.50
2017-12-16T16:35:13.794Z,10.50
2017-12-16T16:37:41.577Z,4.20
2017-12-16T16:40:09.004Z,7.23
2017-12-16T16:42:36.442Z,6.53
2017-12-16T16:45:04.681Z,14.20
2017-12-16T16:47:32.107Z,14.30
2017-12-16T16:49:59.574Z,15.67
2017-12-16T16:52:27.017Z,15.73
2017-12-16T16:54:54.445Z,16.43
2017-12-16T16:57:22.649Z,16.33
2017-12-16T16:59:50.098Z,15.67
2017-12-16T17:02:17.614Z,18.27
2017-12-16T17:04:45.025Z,12.13
2017-12-16T17:07:12.473Z,9.80
2017-12-16T17:09:39.901Z,7.87
2017-12-16T17:12:08.119Z,6.30
2017-12-16T17:14:35.532Z,7.37
2017-12-16T17:17:03.729Z,7.10
2017-12-16T17:19:31.918Z,5.30
2017-12-16T17:21:59.375Z,3.47
2017-12-16T17:24:26.798Z,8.73
2017-12-16T17:26:55.023Z,6.00
2017-12-16T17:29:22.477Z,18.63
2017-12-16T17:31:49.949Z,12.37
2017-12-16T17:34:17.548Z,13.87
2017-12-16T17:36:44.945Z,13.50
2017-12-16T17:39:12.385Z,14.77
2017-12-16T17:41:39.823Z,15.27
2017-12-16T17:44:08.025Z,16.33
2017-12-16T17:46:36.367Z,11.03
2017-12-16T17:49:04.561Z,10.17
2017-12-16T17:51:32.004Z,8.03
2017-12-16T17:54:00.197Z,8.70
2017-12-16T17:56:27.628Z,5.90
2017-12-16T17:58:55.842Z,8.40
2017-12-16T18:01:23.274Z,10.20
2017-12-16T18:03:51.474Z,11.90
2017-12-16T18:06:19.152Z,9.70
2017-12-16T18:08:46.581Z,11.40
2017-12-16T18:11:14.055Z,9.03
2017-12-16T18:13:41.493Z,9.83
2017-12-16T18:16:08.917Z,8.77
2017-12-16T18:18:36.349Z,13.43
2017-12-16T18:21:03.805Z,13.63
2017-12-16T18:23:31.237Z,11.37
2017-12-16T18:25:58.657Z,8.73
2017-12-16T18:28:26.865Z,7.63
2017-12-16T18:30:54.322Z,8.23
2017-12-16T18:33:21.740Z,7.73
2017-12-16T18:35:49.936Z,7.37
2017-12-16T18:38:17.362Z,9.23
2017-12-16T18:40:45.557Z,8.67
2017-12-16T18:43:12.992Z,9.80
2017-12-16T18:45:41.184Z,7.17
2017-12-16T18:48:09.384Z,7.03
2017-12-16T18:50:37.120Z,11.53
2017-12-16T18:53:05.326Z,9.17
2017-12-16T18:55:32.737Z,7.40
2017-12-16T18:58:00.941Z,6.73
2017-12-16T19:00:28.381Z,7.00
2017-12-16T19:02:56.569Z,6.00
2017-12-16T19:05:24.005Z,5.77
2017-12-16T19:07:52.200Z,7.40
2017-12-16T19:10:19.620Z,6.27
2017-12-16T19:12:47.069Z,5.70
2017-12-16T19:15:14.505Z,9.83
2017-12-16T19:17:44.764Z,13.03
2017-12-16T19:20:12.197Z,10.17
2017-12-16T19:22:39.734Z,12.20
2017-12-16T19:25:07.183Z,11.70
2017-12-16T19:27:34.698Z,12.00
2017-12-16T19:30:02.112Z,16.70
2017-12-16T19:32:29.540Z,8.97
2017-12-16T19:34:57.176Z,10.67
2017-12-16T19:37:25.690Z,9.50
2017-12-16T19:39:53.166Z,9.20
2017-12-16T19:42:20.585Z,12.50
2017-12-16T19:44:48.776Z,11.27
2017-12-16T19:47:16.201Z,9.40
2017-12-16T19:49:44.769Z,8.73
2017-12-16T19:52:13.730Z,8.83
2017-12-16T19:54:41.153Z,9.50
2017-12-16T19:57:08.596Z,8.27
2017-12-16T19:59:36.851Z,13.17
2017-12-16T20:02:04.287Z,13.93
2017-12-16T20:04:31.789Z,13.53
2017-12-16T20:06:59.980Z,16.40
2017-12-16T20:09:27.523Z,12.70
2017-12-16T20:11:55.729Z,11.83
2017-12-16T20:14:23.156Z,11.77
2017-12-16T20:16:51.361Z,8.87
2017-12-16T20:19:18.785Z,13.20
2017-12-16T20:21:46.976Z,9.37
2017-12-16T20:24:14.404Z,10.33
2017-12-16T20:26:41.842Z,7.97
2017-12-16T20:29:09.283Z,8.83
2017-12-16T20:31:36.713Z,7.57
2017-12-16T20:34:04.154Z,9.03
2017-12-16T20:36:32.349Z,9.13
2017-12-16T20:38:59.769Z,7.63
2017-12-16T20:41:27.980Z,8.27
2017-12-16T20:43:55.409Z,7.57
2017-12-16T20:46:23.629Z,8.60
2017-12-16T20:48:51.065Z,8.07
2017-12-16T20:51:18.492Z,8.40
2017-12-16T20:53:46.684Z,8.37
2017-12-16T20:56:14.373Z,8.77
2017-12-16T20:58:41.812Z,8.43
2017-12-16T21:01:10.744Z,8.23
2017-12-16T21:03:38.652Z,10.50
2017-12-16T21:06:06.880Z,10.70
2017-12-16T21:08:34.728Z,11.03
2017-12-16T21:11:03.119Z,5.23
2017-12-16T21:13:30.540Z,9.13
2017-12-16T21:15:58.021Z,9.83
2017-12-16T21:18:25.471Z,22.03
2017-12-16T21:20:52.929Z,12.00
2017-12-16T21:23:20.333Z,9.27
2017-12-16T21:25:47.769Z,6.90
2017-12-16T21:28:15.205Z,4.10
2017-12-16T21:30:42.636Z,3.80
2017-12-16T21:33:11.657Z,5.03
2017-12-16T21:35:39.109Z,5.00
2017-12-16T21:38:06.543Z,9.40
2017-12-16T21:40:33.976Z,8.27
2017-12-16T21:43:02.181Z,7.20
2017-12-16T21:45:29.615Z,8.27
2017-12-16T21:47:57.829Z,7.80
2017-12-16T21:50:25.257Z,9.17
2017-12-16T21:52:52.681Z,8.67
2017-12-16T21:55:20.120Z,9.77
2017-12-16T21:57:47.553Z,11.53
2017-12-16T22:00:15.217Z,9.03
2017-12-16T22:02:42.677Z,9.23
2017-12-16T22:05:10.116Z,10.30
2017-12-16T22:07:37.573Z,8.53
2017-12-16T22:10:05.031Z,10.63
2017-12-16T22:12:33.209Z,8.60
2017-12-16T22:15:00.636Z,8.43
2017-12-16T22:17:28.360Z,8.77
2017-12-16T22:19:55.790Z,9.60
2017-12-16T22:22:23.217Z,10.40
2017-12-16T22:24:50.933Z,7.97
2017-12-16T22:27:18.360Z,21.10
2017-12-16T22:29:45.797Z,14.50
2017-12-16T22:32:14.004Z,26.67
2017-12-16T22:34:41.430Z,35.23
2017-12-16T22:37:09.626Z,22.23
2017-12-16T22:39:37.060Z,15.47
2017-12-16T22:42:05.256Z,16.07
2017-12-16T22:44:32.709Z,17.90
2017-12-16T22:47:01.021Z,48.23
2017-12-16T22:49:28.526Z,34.60
2017-12-16T22:51:56.038Z,24.90
2017-12-16T22:54:23.486Z,23.87
2017-12-16T22:56:51.013Z,16.07
2017-12-16T22:59:19.225Z,17.60
2017-12-16T23:01:46.676Z,22.53
2017-12-16T23:04:14.455Z,24.03
2017-12-16T23:06:41.916Z,11.80
2017-12-16T23:09:09.359Z,11.27
2017-12-16T23:11:36.784Z,24.43
2017-12-16T23:14:05.821Z,21.70
2017-12-16T23:16:33.267Z,35.77
2017-12-16T23:19:00.688Z,26.90
2017-12-16T23:21:28.886Z,16.17
2017-12-16T23:23:56.320Z,24.10
2017-12-16T23:26:24.523Z,16.03
2017-12-16T23:28:51.988Z,11.97
2017-12-16T23:31:19.460Z,16.97
2017-12-16T23:33:46.897Z,14.90
2017-12-16T23:36:14.358Z,10.10
2017-12-16T23:38:41.828Z,9.80
2017-12-16T23:41:09.371Z,11.83
2017-12-16T23:43:36.773Z,9.37
2017-12-16T23:46:04.214Z,9.13
2017-12-16T23:48:31.757Z,9.97
2017-12-16T23:50:59.211Z,10.07
2017-12-16T23:53:26.676Z,9.53
2017-12-16T23:55:54.096Z,10.63
2017-12-16T23:58:21.581Z,10.03
